createdAt,value
2022-11-21T00:01:14.709Z,99129.72
2022-11-21T00:03:41.219Z,99129.00
2022-11-21T00:06:07.786Z,99132.84
2022-11-21T00:08:34.930Z,99136.81
2022-11-21T00:11:01.475Z,99131.72
2022-11-21T00:13:27.941Z,99123.69
2022-11-21T00:15:54.464Z,99128.19
2022-11-21T00:18:20.897Z,99130.84
2022-11-21T00:20:47.358Z,99125.84
2022-11-21T00:23:13.975Z,99131.50
2022-11-21T00:25:40.448Z,99125.44
2022-11-21T00:28:06.925Z,99120.03
2022-11-21T00:30:34.095Z,99125.88
2022-11-21T00:33:00.625Z,99124.13
2022-11-21T00:35:27.352Z,99120.91
2022-11-21T00:37:53.799Z,99126.94
2022-11-21T00:40:20.334Z,99130.56
2022-11-21T00:42:46.937Z,99123.56
2022-11-21T00:45:13.564Z,99121.88
2022-11-21T00:47:39.986Z,99116.53
2022-11-21T00:50:06.767Z,99117.25
2022-11-21T00:52:33.786Z,99114.69
2022-11-21T00:55:00.466Z,99113.75
2022-11-21T00:57:26.980Z,99107.44
2022-11-21T00:59:53.567Z,99108.19
2022-11-21T01:02:20.028Z,99101.41
2022-11-21T01:04:46.521Z,99096.00
2022-11-21T01:07:14.639Z,99089.97
2022-11-21T01:09:41.278Z,99087.53
2022-11-21T01:12:07.846Z,99086.53
2022-11-21T01:14:35.120Z,99086.44
2022-11-21T01:17:01.617Z,99078.63
2022-11-21T01:19:28.059Z,99078.16
2022-11-21T01:21:54.502Z,99070.88
2022-11-21T01:24:21.047Z,99069.97
2022-11-21T01:26:49.079Z,99071.56
2022-11-21T01:29:15.507Z,99074.91
2022-11-21T01:31:41.980Z,99076.56
2022-11-21T01:34:08.436Z,99075.06
2022-11-21T01:36:35.388Z,99076.63
2022-11-21T01:39:04.755Z,99070.13
2022-11-21T01:41:37.282Z,99068.94
2022-11-21T01:44:14.146Z,99067.44
2022-11-21T01:46:40.746Z,99061.59
2022-11-21T01:49:14.168Z,99066.81
2022-11-21T01:51:54.460Z,99069.47
2022-11-21T01:54:40.703Z,99067.97
2022-11-21T01:57:35.235Z,99072.81
2022-11-21T02:00:06.980Z,99078.72
2022-11-21T02:02:36.885Z,99069.03
2022-11-21T02:05:05.244Z,99077.88
2022-11-21T02:07:36.018Z,99072.84
2022-11-21T02:10:03.459Z,99067.41
2022-11-21T02:12:34.903Z,99062.91
2022-11-21T02:15:01.900Z,99062.28
2022-11-21T02:17:31.452Z,99072.41
2022-11-21T02:19:59.863Z,99061.38
2022-11-21T02:22:39.787Z,99060.56
2022-11-21T02:25:12.863Z,99065.56
2022-11-21T02:27:39.443Z,99068.84
2022-11-21T02:30:08.605Z,99071.59
2022-11-21T02:32:38.116Z,99063.91
2022-11-21T02:35:05.488Z,99068.09
2022-11-21T02:37:32.538Z,99062.72
2022-11-21T02:40:01.751Z,99068.94
2022-11-21T02:42:32.402Z,99067.28
2022-11-21T02:45:19.668Z,99073.03
2022-11-21T02:47:47.063Z,99075.19
2022-11-21T02:50:16.851Z,99085.00
2022-11-21T02:52:43.311Z,99084.78
2022-11-21T02:55:11.597Z,99088.69
2022-11-21T02:57:39.721Z,99091.38
2022-11-21T03:00:06.721Z,99083.50
2022-11-21T03:02:35.697Z,99084.69
2022-11-21T03:05:02.763Z,99076.78
2022-11-21T03:07:29.338Z,99075.97
2022-11-21T03:09:55.901Z,99087.28
2022-11-21T03:12:22.442Z,99089.53
2022-11-21T03:14:49.076Z,99094.91
2022-11-21T03:17:15.522Z,99090.28
2022-11-21T03:19:41.994Z,99098.50
2022-11-21T03:22:08.779Z,99109.66
2022-11-21T03:24:35.492Z,99103.78
2022-11-21T03:27:02.062Z,99102.38
2022-11-21T03:29:28.634Z,99093.91
2022-11-21T03:31:55.221Z,99097.59
2022-11-21T03:34:21.772Z,99103.47
2022-11-21T03:36:48.394Z,99111.06
2022-11-21T03:39:14.954Z,99110.75
2022-11-21T03:41:41.437Z,99115.78
2022-11-21T03:44:10.036Z,99112.81
2022-11-21T03:46:38.310Z,99115.53
2022-11-21T03:49:05.540Z,99116.03
2022-11-21T03:51:32.353Z,99109.97
2022-11-21T03:53:59.415Z,99114.78
2022-11-21T03:56:26.398Z,99108.66
2022-11-21T03:58:53.696Z,99110.66
2022-11-21T04:01:20.659Z,99108.00
2022-11-21T04:03:47.482Z,99106.63
2022-11-21T04:06:16.146Z,99100.53
2022-11-21T04:08:43.260Z,99094.59
2022-11-21T04:11:10.660Z,99093.50
2022-11-21T04:13:38.017Z,99092.75
2022-11-21T04:16:05.125Z,99095.00
2022-11-21T04:18:31.689Z,99086.47
2022-11-21T04:20:59.477Z,99091.59
2022-11-21T04:23:26.462Z,99088.88
2022-11-21T04:25:53.663Z,99089.22
2022-11-21T04:28:21.499Z,99087.47
2022-11-21T04:30:47.927Z,99079.81
2022-11-21T04:33:15.369Z,99086.88
2022-11-21T04:35:43.517Z,99091.22
2022-11-21T04:38:10.525Z,99083.53
2022-11-21T04:40:37.332Z,99074.81
2022-11-21T04:43:04.425Z,99079.16
2022-11-21T04:45:30.862Z,99078.66
2022-11-21T04:47:57.348Z,99074.66
2022-11-21T04:50:23.867Z,99071.19
2022-11-21T04:52:55.751Z,99058.75
2022-11-21T04:55:24.495Z,99058.75
2022-11-21T04:57:50.981Z,99059.00
2022-11-21T05:00:23.729Z,99063.00
2022-11-21T05:02:51.007Z,99071.94
2022-11-21T05:05:17.818Z,99076.03
2022-11-21T05:07:44.314Z,99062.13
2022-11-21T05:10:11.153Z,99072.94
2022-11-21T05:12:56.426Z,99065.38
2022-11-21T05:15:24.841Z,99063.56
2022-11-21T05:17:51.874Z,99069.22
2022-11-21T05:20:18.873Z,99070.22
2022-11-21T05:22:50.461Z,99066.47
2022-11-21T05:25:17.048Z,99067.16
2022-11-21T05:27:43.553Z,99060.50
2022-11-21T05:30:11.324Z,99061.69
2022-11-21T05:32:37.850Z,99061.97
2022-11-21T05:35:04.600Z,99066.97
2022-11-21T05:37:31.221Z,99070.09
2022-11-21T05:39:57.819Z,99071.75
2022-11-21T05:42:44.682Z,99064.16
2022-11-21T05:45:11.242Z,99069.69
2022-11-21T05:47:37.708Z,99060.44
2022-11-21T05:50:04.826Z,99074.88
2022-11-21T05:52:31.338Z,99079.31
2022-11-21T05:54:57.771Z,99071.75
2022-11-21T05:57:24.358Z,99066.81
2022-11-21T05:59:50.896Z,99071.25
2022-11-21T06:02:36.225Z,99063.09
2022-11-21T06:05:02.787Z,99064.53
2022-11-21T06:07:29.356Z,99060.81
2022-11-21T06:09:55.894Z,99052.59
2022-11-21T06:12:25.397Z,99049.22
2022-11-21T06:14:52.629Z,99048.41
2022-11-21T06:17:19.492Z,99058.41
2022-11-21T06:19:46.106Z,99070.63
2022-11-21T06:22:12.605Z,99059.13
2022-11-21T06:24:39.259Z,99062.41
2022-11-21T06:27:05.751Z,99060.78
2022-11-21T06:29:32.253Z,99063.06
2022-11-21T06:31:58.788Z,99055.72
2022-11-21T06:34:28.086Z,99053.69
2022-11-21T06:36:54.614Z,99052.44
2022-11-21T06:39:21.357Z,99061.16
2022-11-21T06:41:51.281Z,99066.03
2022-11-21T06:44:20.477Z,99070.09
2022-11-21T06:46:50.977Z,99086.91
2022-11-21T06:49:18.143Z,99083.16
2022-11-21T06:51:44.568Z,99083.69
2022-11-21T06:54:16.259Z,99081.25
2022-11-21T06:56:43.724Z,99088.38
2022-11-21T06:59:10.222Z,99086.19
2022-11-21T07:01:37.022Z,99090.56
2022-11-21T07:04:03.589Z,99088.38
2022-11-21T07:06:30.006Z,99080.84
2022-11-21T07:09:32.089Z,99087.38
2022-11-21T07:11:43.473Z,99087.13
2022-11-21T07:14:10.211Z,99085.03
2022-11-21T07:16:37.048Z,99083.19
2022-11-21T07:19:03.604Z,99076.16
2022-11-21T07:21:30.290Z,99069.94
2022-11-21T07:23:56.903Z,99068.19
2022-11-21T07:26:23.512Z,99069.50
2022-11-21T07:28:50.500Z,99048.00
2022-11-21T07:31:17.034Z,99050.78
2022-11-21T07:33:43.814Z,99045.94
2022-11-21T07:36:11.394Z,99050.00
2022-11-21T07:38:37.964Z,99045.03
2022-11-21T07:41:04.642Z,99057.56
2022-11-21T07:43:31.250Z,99043.00
2022-11-21T07:45:57.711Z,99040.41
2022-11-21T07:48:24.150Z,99031.78
2022-11-21T07:50:50.597Z,99041.09
2022-11-21T07:53:17.138Z,99035.06
2022-11-21T07:55:43.663Z,99041.09
2022-11-21T07:58:12.667Z,99043.34
2022-11-21T08:00:42.667Z,99058.56
2022-11-21T08:03:09.839Z,99059.69
2022-11-21T08:05:41.197Z,99060.63
2022-11-21T08:08:08.279Z,99055.97
2022-11-21T08:10:40.469Z,99070.91
2022-11-21T08:13:07.227Z,99061.91
2022-11-21T08:15:34.367Z,99069.59
2022-11-21T08:18:14.869Z,99080.84
2022-11-21T08:20:42.029Z,99096.50
2022-11-21T08:23:10.068Z,99117.13
2022-11-21T08:25:40.163Z,99122.88
2022-11-21T08:28:09.186Z,99143.13
2022-11-21T08:30:36.581Z,99154.34
2022-11-21T08:33:04.117Z,99145.84
2022-11-21T08:35:30.972Z,99146.81
2022-11-21T08:37:58.402Z,99152.75
2022-11-21T08:40:26.473Z,99151.38
2022-11-21T08:42:59.142Z,99162.72
2022-11-21T08:45:26.941Z,99148.66
2022-11-21T08:47:54.020Z,99164.56
2022-11-21T08:50:20.991Z,99158.78
2022-11-21T08:52:47.599Z,99138.13
2022-11-21T08:55:14.287Z,99142.22
2022-11-21T08:57:41.378Z,99127.31
2022-11-21T09:00:09.597Z,99118.19
2022-11-21T09:02:36.488Z,99114.31
2022-11-21T09:05:03.142Z,99121.84
2022-11-21T09:07:29.670Z,99110.81
2022-11-21T09:09:56.136Z,99104.69
2022-11-21T09:12:22.577Z,99093.69
2022-11-21T09:15:07.558Z,99070.13
2022-11-21T09:17:52.996Z,99066.50
2022-11-21T09:20:19.554Z,99071.00
2022-11-21T09:22:47.034Z,99080.06
2022-11-21T09:25:13.802Z,99076.38
2022-11-21T09:27:40.371Z,99063.88
2022-11-21T09:30:07.572Z,99053.59
2022-11-21T09:32:34.622Z,99052.91
2022-11-21T09:35:01.306Z,99052.50
2022-11-21T09:37:27.840Z,99046.38
2022-11-21T09:39:54.333Z,99043.84
2022-11-21T09:42:46.287Z,99038.53
2022-11-21T09:45:13.170Z,99022.06
2022-11-21T09:47:44.550Z,99021.69
2022-11-21T09:50:13.724Z,99009.47
2022-11-21T09:52:50.763Z,99006.84
2022-11-21T09:55:26.632Z,99005.13
2022-11-21T09:57:53.921Z,99005.56
2022-11-21T10:00:25.182Z,98995.25
2022-11-21T10:02:52.263Z,98979.75
2022-11-21T10:05:26.135Z,98983.66
2022-11-21T10:07:54.146Z,98971.53
2022-11-21T10:10:55.377Z,98975.88
2022-11-21T10:13:28.856Z,98987.66
2022-11-21T10:16:06.064Z,98984.72
2022-11-21T10:18:54.071Z,98974.47
2022-11-21T10:21:53.958Z,98977.25
2022-11-21T10:24:28.505Z,98973.28
2022-11-21T10:26:59.144Z,98971.56
2022-11-21T10:29:32.795Z,98969.56
2022-11-21T10:32:03.734Z,98974.91
2022-11-21T10:34:32.907Z,98973.03
2022-11-21T10:37:09.084Z,98963.69
2022-11-21T10:39:41.631Z,98960.88
2022-11-21T10:42:39.300Z,98972.94
2022-11-21T10:45:17.028Z,98967.28
2022-11-21T10:47:45.135Z,98965.16
2022-11-21T10:50:20.607Z,98963.19
2022-11-21T10:52:51.367Z,98956.97
2022-11-21T10:55:18.279Z,98963.69
2022-11-21T10:57:51.967Z,98959.84
2022-11-21T11:00:22.566Z,98964.81
2022-11-21T11:03:00.282Z,98957.84
2022-11-21T11:05:31.134Z,98953.63
2022-11-21T11:08:10.616Z,98952.34
2022-11-21T11:11:01.817Z,98954.06
2022-11-21T11:13:46.940Z,98960.78
2022-11-21T11:16:18.732Z,98963.44
2022-11-21T11:18:47.977Z,98966.81
2022-11-21T11:21:26.400Z,98973.88
2022-11-21T11:23:54.026Z,98961.78
2022-11-21T11:26:24.484Z,98967.88
2022-11-21T11:28:51.693Z,98962.38
2022-11-21T11:31:18.281Z,98954.75
2022-11-21T11:33:47.348Z,98956.53
2022-11-21T11:36:31.994Z,98960.69
2022-11-21T11:38:59.700Z,98957.13
2022-11-21T11:42:03.467Z,98958.06
2022-11-21T11:44:59.777Z,98942.00
2022-11-21T11:47:32.628Z,98947.59
2022-11-21T11:50:13.083Z,98946.41
2022-11-21T11:52:47.071Z,98943.31
2022-11-21T11:55:22.051Z,98944.50
2022-11-21T11:57:50.938Z,98944.72
2022-11-21T12:00:32.748Z,98942.91
2022-11-21T12:03:15.164Z,98937.84
2022-11-21T12:06:08.959Z,98945.69
2022-11-21T12:08:44.813Z,98952.09
2022-11-21T12:11:41.083Z,98947.22
2022-11-21T12:14:35.470Z,98936.28
2022-11-21T12:17:05.303Z,98936.78
2022-11-21T12:19:32.068Z,98935.47
2022-11-21T12:21:58.642Z,98921.88
2022-11-21T12:24:25.094Z,98922.22
2022-11-21T12:27:28.280Z,98912.59
2022-11-21T12:30:14.712Z,98909.72
2022-11-21T12:33:09.253Z,98913.69
2022-11-21T12:35:35.808Z,98908.13
2022-11-21T12:38:21.988Z,98906.38
2022-11-21T12:41:27.043Z,98887.16
2022-11-21T12:44:07.423Z,98895.28
2022-11-21T12:46:52.539Z,98880.16
2022-11-21T12:49:56.402Z,98885.91
2022-11-21T12:52:44.248Z,98884.63
2022-11-21T12:55:35.532Z,98876.00
2022-11-21T12:58:17.813Z,98875.13
2022-11-21T13:01:06.959Z,98876.78
2022-11-21T13:03:44.970Z,98874.66
2022-11-21T13:06:33.897Z,98876.94
2022-11-21T13:09:02.584Z,98880.16
2022-11-21T13:11:58.916Z,98889.63
2022-11-21T13:14:29.965Z,98891.97
2022-11-21T13:17:11.965Z,98887.13
2022-11-21T13:19:58.068Z,98883.72
2022-11-21T13:22:36.579Z,98878.03
2022-11-21T13:25:40.913Z,98874.13
2022-11-21T13:28:13.879Z,98885.09
2022-11-21T13:30:54.063Z,98870.00
2022-11-21T13:33:35.993Z,98873.09
2022-11-21T13:36:06.051Z,98873.81
2022-11-21T13:38:55.849Z,98873.59
2022-11-21T13:41:54.724Z,98869.19
2022-11-21T13:44:35.595Z,98879.66
2022-11-21T13:47:12.464Z,98876.22
2022-11-21T13:50:17.096Z,98870.84
2022-11-21T13:53:04.795Z,98864.59
2022-11-21T13:56:29.993Z,98872.91
2022-11-21T13:59:24.578Z,98855.50
2022-11-21T14:02:39.693Z,98854.69
2022-11-21T14:05:36.983Z,98856.97
2022-11-21T14:08:33.851Z,98853.97
2022-11-21T14:11:19.251Z,98851.25
2022-11-21T14:13:48.499Z,98845.19
2022-11-21T14:16:29.496Z,98849.34
2022-11-21T14:18:56.407Z,98850.31
2022-11-21T14:21:27.185Z,98851.16
2022-11-21T14:23:57.440Z,98846.75
2022-11-21T14:26:25.581Z,98845.31
2022-11-21T14:28:52.277Z,98846.72
2022-11-21T14:31:19.199Z,98849.34
2022-11-21T14:33:47.578Z,98841.50
2022-11-21T14:36:14.972Z,98842.56
2022-11-21T14:38:44.298Z,98849.00
2022-11-21T14:41:28.912Z,98853.16
2022-11-21T14:43:58.795Z,98862.69
2022-11-21T14:46:27.404Z,98857.47
2022-11-21T14:48:54.186Z,98855.81
2022-11-21T14:51:22.556Z,98851.16
2022-11-21T14:53:50.853Z,98847.00
2022-11-21T14:56:21.144Z,98851.03
2022-11-21T14:58:48.212Z,98853.06
2022-11-21T15:01:22.527Z,98852.38
2022-11-21T15:04:15.595Z,98857.94
2022-11-21T15:06:43.990Z,98854.72
2022-11-21T15:10:25.504Z,98844.25
2022-11-21T15:12:06.030Z,98850.56
2022-11-21T15:14:43.558Z,98851.50
2022-11-21T15:17:16.097Z,98854.97
2022-11-21T15:19:43.485Z,98841.28
2022-11-21T15:22:23.517Z,98841.19
2022-11-21T15:24:50.610Z,98845.34
2022-11-21T15:27:44.226Z,98853.44
2022-11-21T15:30:10.576Z,98853.28
2022-11-21T15:33:03.230Z,98843.16
2022-11-21T15:35:35.902Z,98847.78
2022-11-21T15:38:02.965Z,98852.53
2022-11-21T15:40:29.837Z,98849.81
2022-11-21T15:42:56.447Z,98846.84
2022-11-21T15:45:25.761Z,98854.44
2022-11-21T15:47:52.773Z,98857.41
2022-11-21T15:50:22.764Z,98860.50
2022-11-21T15:52:51.418Z,98853.00
2022-11-21T15:55:29.410Z,98859.66
2022-11-21T15:57:56.161Z,98852.66
2022-11-21T16:00:22.995Z,98855.25
2022-11-21T16:02:49.649Z,98853.84
2022-11-21T16:05:16.761Z,98852.06
2022-11-21T16:07:43.339Z,98853.84
2022-11-21T16:10:18.255Z,98854.06
2022-11-21T16:12:47.904Z,98845.50
2022-11-21T16:15:14.576Z,98841.56
2022-11-21T16:17:41.715Z,98838.13
2022-11-21T16:20:08.804Z,98848.13
2022-11-21T16:22:41.464Z,98840.97
2022-11-21T16:25:10.917Z,98842.28
2022-11-21T16:27:37.407Z,98844.53
2022-11-21T16:30:04.238Z,98847.41
2022-11-21T16:32:30.678Z,98846.19
2022-11-21T16:34:58.308Z,98852.81
2022-11-21T16:37:25.009Z,98853.41
2022-11-21T16:39:54.443Z,98854.56
2022-11-21T16:42:20.926Z,98846.25
2022-11-21T16:44:48.132Z,98841.25
2022-11-21T16:47:15.023Z,98845.41
2022-11-21T16:49:48.483Z,98844.94
2022-11-21T16:52:15.572Z,98852.53
2022-11-21T16:54:42.258Z,98853.69
2022-11-21T16:57:08.772Z,98848.47
2022-11-21T16:59:37.686Z,98850.16
2022-11-21T17:02:04.215Z,98848.47
2022-11-21T17:04:31.026Z,98846.72
2022-11-21T17:06:57.876Z,98833.75
2022-11-21T17:09:24.609Z,98841.38
2022-11-21T17:11:51.283Z,98849.91
2022-11-21T17:14:17.726Z,98833.53
2022-11-21T17:16:45.792Z,98848.03
2022-11-21T17:19:12.649Z,98846.97
2022-11-21T17:21:39.186Z,98841.66
2022-11-21T17:24:06.031Z,98843.63
2022-11-21T17:26:36.110Z,98837.00
2022-11-21T17:29:05.776Z,98837.84
2022-11-21T17:31:32.581Z,98837.72
2022-11-21T17:34:00.691Z,98837.84
2022-11-21T17:36:29.120Z,98832.06
2022-11-21T17:38:55.925Z,98832.97
2022-11-21T17:41:23.774Z,98832.97
2022-11-21T17:43:53.984Z,98832.78
2022-11-21T17:46:20.612Z,98835.38
2022-11-21T17:48:54.636Z,98838.13
2022-11-21T17:51:25.574Z,98841.56
2022-11-21T17:53:52.581Z,98844.19
2022-11-21T17:56:21.466Z,98844.56
2022-11-21T17:58:48.315Z,98835.91
2022-11-21T18:01:19.469Z,98845.16
2022-11-21T18:03:47.665Z,98843.59
2022-11-21T18:06:16.220Z,98842.09
2022-11-21T18:08:44.315Z,98852.88
2022-11-21T18:11:12.728Z,98851.81
2022-11-21T18:13:39.766Z,98853.63
2022-11-21T18:16:08.584Z,98847.41
2022-11-21T18:18:36.191Z,98845.66
2022-11-21T18:21:04.365Z,98851.22
2022-11-21T18:23:31.151Z,98845.41
2022-11-21T18:26:09.693Z,98844.59
2022-11-21T18:28:36.179Z,98848.88
2022-11-21T18:31:23.272Z,98850.53
2022-11-21T18:33:52.082Z,98842.91
2022-11-21T18:36:19.198Z,98846.50
2022-11-21T18:38:49.573Z,98850.19
2022-11-21T18:41:28.304Z,98840.31
2022-11-21T18:43:59.498Z,98842.13
2022-11-21T18:46:27.741Z,98846.72
2022-11-21T18:49:02.807Z,98842.81
2022-11-21T18:51:32.003Z,98841.03
2022-11-21T18:54:00.408Z,98847.09
2022-11-21T18:56:27.071Z,98854.94
2022-11-21T18:58:58.388Z,98848.66
2022-11-21T19:01:27.996Z,98855.53
2022-11-21T19:03:55.246Z,98860.06
2022-11-21T19:06:23.255Z,98847.69
2022-11-21T19:08:53.124Z,98856.50
2022-11-21T19:11:20.601Z,98852.00
2022-11-21T19:13:47.928Z,98853.63
2022-11-21T19:16:17.236Z,98856.50
2022-11-21T19:18:48.486Z,98855.78
2022-11-21T19:21:21.980Z,98853.78
2022-11-21T19:23:49.073Z,98854.34
2022-11-21T19:26:18.286Z,98871.25
2022-11-21T19:28:45.589Z,98874.22
2022-11-21T19:31:14.769Z,98873.41
2022-11-21T19:33:41.744Z,98869.09
2022-11-21T19:36:19.521Z,98860.56
2022-11-21T19:38:50.667Z,98857.34
2022-11-21T19:41:21.060Z,98861.97
2022-11-21T19:43:51.238Z,98863.28
2022-11-21T19:46:23.185Z,98863.88
2022-11-21T19:48:51.085Z,98861.97
2022-11-21T19:51:18.508Z,98862.44
2022-11-21T19:53:45.674Z,98868.88
2022-11-21T19:56:20.400Z,98874.59
2022-11-21T19:58:47.931Z,98870.28
2022-11-21T20:01:20.160Z,98879.72
2022-11-21T20:03:49.799Z,98874.22
2022-11-21T20:06:24.746Z,98878.84
2022-11-21T20:08:55.906Z,98884.34
2022-11-21T20:11:23.381Z,98886.34
2022-11-21T20:13:50.932Z,98892.41
2022-11-21T20:16:19.370Z,98889.56
2022-11-21T20:18:46.455Z,98894.94
2022-11-21T20:21:13.582Z,98893.63
2022-11-21T20:23:40.389Z,98887.91
2022-11-21T20:26:08.120Z,98895.63
2022-11-21T20:28:36.892Z,98885.31
2022-11-21T20:31:11.656Z,98889.81
2022-11-21T20:33:39.953Z,98886.72
2022-11-21T20:36:11.265Z,98887.78
2022-11-21T20:38:37.993Z,98894.31
2022-11-21T20:41:05.164Z,98881.84
2022-11-21T20:43:59.509Z,98879.66
2022-11-21T20:46:20.664Z,98886.94
2022-11-21T20:48:47.787Z,98894.78
2022-11-21T20:52:43.328Z,98899.53
2022-11-21T20:54:03.631Z,98908.81
2022-11-21T20:56:35.188Z,98906.91
2022-11-21T20:59:01.858Z,98907.63
2022-11-21T21:01:28.613Z,98901.06
2022-11-21T21:03:55.485Z,98906.91
2022-11-21T21:06:24.167Z,98911.44
2022-11-21T21:08:51.627Z,98910.25
2022-11-21T21:11:49.760Z,98907.50
2022-11-21T21:14:07.940Z,98904.19
2022-11-21T21:16:36.205Z,98907.28
2022-11-21T21:19:02.700Z,98908.09
2022-11-21T21:21:30.848Z,98912.22
2022-11-21T21:24:02.125Z,98904.16
2022-11-21T21:26:30.761Z,98911.91
2022-11-21T21:28:58.324Z,98904.19
2022-11-21T21:31:24.924Z,98908.09
2022-11-21T21:33:51.891Z,98907.97
2022-11-21T21:36:20.944Z,98915.13
2022-11-21T21:38:54.724Z,98904.66
2022-11-21T21:41:22.143Z,98905.72
2022-11-21T21:43:49.919Z,98916.06
2022-11-21T21:46:18.102Z,98912.53
2022-11-21T21:48:45.335Z,98919.06
2022-11-21T21:51:21.904Z,98919.53
2022-11-21T21:53:50.103Z,98915.00
2022-11-21T21:56:18.600Z,98915.00
2022-11-21T21:58:46.130Z,98912.38
2022-11-21T22:01:32.398Z,98918.78
2022-11-21T22:04:00.960Z,98920.34
2022-11-21T22:06:28.216Z,98904.50
2022-11-21T22:08:55.099Z,98911.25
2022-11-21T22:11:23.991Z,98900.56
2022-11-21T22:13:58.851Z,98903.06
2022-11-21T22:16:25.550Z,98906.88
2022-11-21T22:18:52.397Z,98909.53
2022-11-21T22:21:24.568Z,98911.53
2022-11-21T22:24:22.919Z,98909.97
2022-11-21T22:26:37.930Z,98909.25
2022-11-21T22:29:04.589Z,98915.94
2022-11-21T22:31:32.051Z,98924.28
2022-11-21T22:33:58.860Z,98922.13
2022-11-21T22:36:25.468Z,98921.53
2022-11-21T22:38:56.046Z,98919.66
2022-11-21T22:41:24.724Z,98918.31
2022-11-21T22:43:53.370Z,98918.34
2022-11-21T22:46:20.534Z,98923.56
2022-11-21T22:48:47.740Z,98926.66
2022-11-21T22:51:17.124Z,98917.00
2022-11-21T22:53:45.904Z,98919.50
2022-11-21T22:56:12.964Z,98919.50
2022-11-21T22:58:40.430Z,98922.97
2022-11-21T23:01:10.012Z,98920.22
2022-11-21T23:03:36.763Z,98926.91
2022-11-21T23:06:04.746Z,98924.63
2022-11-21T23:08:31.719Z,98932.25
2022-11-21T23:11:08.217Z,98932.25
2022-11-21T23:13:35.879Z,98934.75
2022-11-21T23:16:03.368Z,98934.41
2022-11-21T23:18:30.522Z,98930.25
2022-11-21T23:20:57.141Z,98936.09
2022-11-21T23:23:23.767Z,98934.06
2022-11-21T23:25:50.300Z,98931.19
2022-11-21T23:28:16.860Z,98931.06
2022-11-21T23:30:44.841Z,98933.09
2022-11-21T23:33:11.855Z,98925.63
2022-11-21T23:35:38.414Z,98931.19
2022-11-21T23:38:05.020Z,98927.88
2022-11-21T23:40:31.676Z,98923.31
2022-11-21T23:42:58.233Z,98918.66
2022-11-21T23:45:24.868Z,98915.22
2022-11-21T23:47:51.706Z,98912.38
2022-11-21T23:50:19.476Z,98913.09
2022-11-21T23:52:46.568Z,98912.22
2022-11-21T23:55:13.272Z,98908.91
2022-11-21T23:57:39.899Z,98920.94
